Time;durP1;ratioP1;P1;durP2;ratioP2;P2;SDS_P1;SDS_P2;PMS_P1;PMS_P2;Temp;Humidity;BMP_temperature;BMP_pressure;BME280_temperature;BME280_humidity;BME280_pressure;Samples;Min_cycle;Max_cycle;Signal;HPM_P1;HPM_P2
2023/01/26 00:01:11;;;;;;;9.60;6.75;;;;;;;;;;4966890;28;20043;-79
2023/01/26 00:03:39;;;;;;;9.70;6.68;;;;;;;;;;4968557;28;20035;-79
2023/01/26 00:06:07;;;;;;;9.90;7.32;;;;;;;;;;4964111;28;20121;-79
2023/01/26 00:08:35;;;;;;;11.68;6.65;;;;;;;;;;4967066;28;20121;-79
2023/01/26 00:11:03;;;;;;;10.50;7.00;;;;;;;;;;4968445;28;20081;-79
2023/01/26 00:13:31;;;;;;;10.68;6.97;;;;;;;;;;4963764;28;20059;-79
2023/01/26 00:15:58;;;;;;;12.13;7.43;;;;;;;;;;4967007;28;20053;-79
2023/01/26 00:18:25;;;;;;;11.40;7.65;;;;;;;;;;4967857;28;20316;-80
2023/01/26 00:21:01;;;;;;;11.13;7.30;;;;;;;;;;4967654;28;20519;-79
2023/01/26 00:23:29;;;;;;;11.43;6.75;;;;;;;;;;4967547;28;20047;-81
2023/01/26 00:25:56;;;;;;;10.00;6.95;;;;;;;;;;4968506;28;20055;-80
2023/01/26 00:28:24;;;;;;;10.13;7.07;;;;;;;;;;4964335;28;20132;-81
2023/01/26 00:30:51;;;;;;;12.15;7.18;;;;;;;;;;4963399;28;20054;-81
2023/01/26 00:33:19;;;;;;;9.18;6.78;;;;;;;;;;4965280;28;20129;-79
2023/01/26 00:35:53;;;;;;;8.80;5.78;;;;;;;;;;4949180;28;20405;-79
2023/01/26 00:38:20;;;;;;;14.48;7.15;;;;;;;;;;4965675;28;20137;-79
2023/01/26 00:40:49;;;;;;;11.40;6.93;;;;;;;;;;4948973;28;20066;-79
2023/01/26 00:43:16;;;;;;;9.85;7.05;;;;;;;;;;4947562;28;20513;-80
2023/01/26 00:45:43;;;;;;;10.68;7.00;;;;;;;;;;4964898;28;20035;-79
2023/01/26 00:48:11;;;;;;;10.52;6.72;;;;;;;;;;4964391;28;20887;-79
2023/01/26 00:50:38;;;;;;;10.32;6.55;;;;;;;;;;4969605;28;20061;-79
2023/01/26 00:53:05;;;;;;;11.40;6.82;;;;;;;;;;4963077;28;20074;-79
2023/01/26 00:55:33;;;;;;;12.15;7.05;;;;;;;;;;4964582;28;20046;-80
2023/01/26 00:58:09;;;;;;;9.93;6.57;;;;;;;;;;4943045;28;20050;-81
2023/01/26 01:00:37;;;;;;;11.43;7.72;;;;;;;;;;4960523;28;20042;-79
2023/01/26 01:03:05;;;;;;;8.95;6.28;;;;;;;;;;4949476;28;20058;-80
2023/01/26 01:05:33;;;;;;;9.35;6.60;;;;;;;;;;4966816;28;20077;-80
2023/01/26 01:08:01;;;;;;;10.65;6.80;;;;;;;;;;4950003;28;20055;-79
2023/01/26 01:10:29;;;;;;;13.23;7.28;;;;;;;;;;4952182;28;20073;-81
2023/01/26 01:12:56;;;;;;;10.77;6.80;;;;;;;;;;4949749;28;20043;-80
2023/01/26 01:15:24;;;;;;;10.65;7.32;;;;;;;;;;4960523;28;20101;-79
2023/01/26 01:17:51;;;;;;;11.25;7.03;;;;;;;;;;4945389;28;20126;-80
2023/01/26 01:20:19;;;;;;;10.07;6.50;;;;;;;;;;4963306;28;20042;-80
2023/01/26 01:22:46;;;;;;;9.32;6.70;;;;;;;;;;4963366;28;20038;-79
2023/01/26 01:25:14;;;;;;;10.27;6.63;;;;;;;;;;4946140;28;20102;-79
2023/01/26 01:27:41;;;;;;;12.55;7.05;;;;;;;;;;4943533;28;20078;-80
2023/01/26 01:30:09;;;;;;;9.85;7.03;;;;;;;;;;4965992;28;20054;-79
2023/01/26 01:32:38;;;;;;;8.85;6.07;;;;;;;;;;4965508;28;20109;-81
2023/01/26 01:35:06;;;;;;;11.15;7.22;;;;;;;;;;4947462;28;20046;-81
2023/01/26 01:37:35;;;;;;;10.85;6.75;;;;;;;;;;4948227;28;20051;-80
2023/01/26 01:40:03;;;;;;;12.55;7.05;;;;;;;;;;4965565;28;20497;-79
2023/01/26 01:42:32;;;;;;;10.68;6.97;;;;;;;;;;4960892;28;20492;-81
2023/01/26 01:45:18;;;;;;;10.20;7.22;;;;;;;;;;4949383;28;20046;-79
2023/01/26 01:47:46;;;;;;;10.80;7.05;;;;;;;;;;4959848;28;20073;-79
2023/01/26 01:50:17;;;;;;;10.07;7.35;;;;;;;;;;4967475;28;20058;-79
2023/01/26 01:52:44;;;;;;;9.40;6.93;;;;;;;;;;4952781;28;20133;-81
2023/01/26 01:55:14;;;;;;;10.60;6.97;;;;;;;;;;4969498;28;20130;-81
2023/01/26 01:57:46;;;;;;;11.38;6.97;;;;;;;;;;4953436;28;20485;-81
2023/01/26 02:00:17;;;;;;;10.82;7.28;;;;;;;;;;4949892;28;20042;-79
2023/01/26 02:06:03;;;;;;;9.23;6.47;;;;;;;;;;4912059;29;20108;-80
2023/01/26 02:08:33;;;;;;;12.20;7.00;;;;;;;;;;4951492;28;20054;-79
2023/01/26 02:11:03;;;;;;;10.18;6.32;;;;;;;;;;4968866;28;20074;-79
2023/01/26 02:13:31;;;;;;;9.55;6.32;;;;;;;;;;4951604;28;20035;-79
2023/01/26 02:15:59;;;;;;;10.40;7.50;;;;;;;;;;4952245;28;20047;-80
2023/01/26 02:18:27;;;;;;;11.30;7.32;;;;;;;;;;4951797;28;20043;-79
2023/01/26 02:21:03;;;;;;;13.07;7.20;;;;;;;;;;4969628;28;20042;-81
2023/01/26 02:23:30;;;;;;;12.45;6.63;;;;;;;;;;4964060;28;20497;-81
2023/01/26 02:26:03;;;;;;;9.55;6.05;;;;;;;;;;4968793;28;20082;-79
2023/01/26 02:28:31;;;;;;;9.32;6.50;;;;;;;;;;4948499;28;20624;-80
2023/01/26 02:30:59;;;;;;;10.68;6.90;;;;;;;;;;4970702;28;20046;-81
2023/01/26 02:33:28;;;;;;;12.15;6.95;;;;;;;;;;4951508;28;20042;-80
2023/01/26 02:36:01;;;;;;;9.13;6.18;;;;;;;;;;4954241;28;20050;-79
2023/01/26 02:38:33;;;;;;;12.35;7.15;;;;;;;;;;4954894;28;20612;-79
2023/01/26 02:44:09;;;;;;;10.02;6.60;;;;;;;;;;4968322;28;20452;-79
2023/01/26 02:46:36;;;;;;;10.68;6.57;;;;;;;;;;4969534;28;20094;-79
2023/01/26 02:51:50;;;;;;;13.45;7.93;;;;;;;;;;4951435;28;20062;-79
2023/01/26 02:57:04;;;;;;;11.48;7.30;;;;;;;;;;4952004;28;20146;-77
2023/01/26 02:59:31;;;;;;;10.40;6.50;;;;;;;;;;4968816;28;20227;-77
2023/01/26 03:01:59;;;;;;;9.45;6.72;;;;;;;;;;4954038;28;20047;-78
2023/01/26 03:04:26;;;;;;;10.68;6.93;;;;;;;;;;4950932;28;20051;-77
2023/01/26 03:06:54;;;;;;;11.65;7.18;;;;;;;;;;4969058;28;20051;-77
2023/01/26 03:09:21;;;;;;;11.35;6.97;;;;;;;;;;4963044;28;20060;-77
2023/01/26 03:11:50;;;;;;;11.18;6.93;;;;;;;;;;4966528;28;20074;-79
2023/01/26 03:14:18;;;;;;;11.38;6.80;;;;;;;;;;4966233;28;20160;-78
2023/01/26 03:16:45;;;;;;;11.02;7.00;;;;;;;;;;4966434;28;20113;-77
2023/01/26 03:27:41;;;;;;;12.27;7.22;;;;;;;;;;4946608;28;20138;-77
2023/01/26 03:30:09;;;;;;;10.20;6.97;;;;;;;;;;4942104;28;20047;-77
2023/01/26 03:32:37;;;;;;;11.73;7.68;;;;;;;;;;4947671;28;20046;-79
2023/01/26 03:35:13;;;;;;;12.43;7.18;;;;;;;;;;4948924;28;20061;-79
2023/01/26 03:37:43;;;;;;;14.00;7.57;;;;;;;;;;4941890;28;20502;-78
2023/01/26 03:56:59;;;;;;;11.35;7.57;;;;;;;;;;4945067;28;20046;-77
2023/01/26 03:59:38;;;;;;;11.80;7.43;;;;;;;;;;4959634;28;20139;-77
2023/01/26 04:10:33;;;;;;;12.48;7.80;;;;;;;;;;4958138;28;20105;-79
2023/01/26 04:21:33;;;;;;;12.52;7.50;;;;;;;;;;4946672;28;20762;-79
2023/01/26 04:24:12;;;;;;;12.02;6.90;;;;;;;;;;4946601;28;20054;-79
2023/01/26 04:26:43;;;;;;;13.68;7.85;;;;;;;;;;4949319;28;20050;-81
2023/01/26 04:29:16;;;;;;;15.73;7.82;;;;;;;;;;4936535;28;20050;-80
2023/01/26 04:31:45;;;;;;;11.80;8.18;;;;;;;;;;4947788;28;20050;-79
2023/01/26 04:34:16;;;;;;;12.52;7.43;;;;;;;;;;4949751;28;20051;-79
2023/01/26 04:36:43;;;;;;;12.35;7.60;;;;;;;;;;4965378;28;20081;-79
2023/01/26 04:39:12;;;;;;;11.30;7.35;;;;;;;;;;4948215;28;20509;-79
2023/01/26 04:41:44;;;;;;;11.40;7.30;;;;;;;;;;4943748;28;22576;-81
2023/01/26 04:44:14;;;;;;;12.05;7.20;;;;;;;;;;4964452;28;20046;-82
2023/01/26 04:46:42;;;;;;;10.27;7.43;;;;;;;;;;4958959;28;20303;-80
2023/01/26 04:49:12;;;;;;;11.32;8.07;;;;;;;;;;4947135;28;20105;-80
2023/01/26 04:51:40;;;;;;;11.75;7.45;;;;;;;;;;4948953;28;20054;-80
2023/01/26 04:54:07;;;;;;;10.68;7.53;;;;;;;;;;4949597;28;20078;-78
2023/01/26 04:56:38;;;;;;;10.90;7.35;;;;;;;;;;4943634;28;20047;-81
2023/01/26 04:59:07;;;;;;;13.10;7.78;;;;;;;;;;4964796;28;20078;-79
2023/01/26 05:01:36;;;;;;;12.13;7.90;;;;;;;;;;4946121;28;20157;-78
2023/01/26 05:04:06;;;;;;;10.52;7.07;;;;;;;;;;4938340;28;21520;-79
2023/01/26 05:06:37;;;;;;;11.48;7.45;;;;;;;;;;4948035;28;20046;-78
2023/01/26 05:09:05;;;;;;;15.00;8.85;;;;;;;;;;4957429;28;20155;-79
2023/01/26 05:11:34;;;;;;;15.18;8.75;;;;;;;;;;4950078;28;20046;-79
2023/01/26 05:14:26;;;;;;;15.63;9.13;;;;;;;;;;4959298;28;20055;-80
2023/01/26 05:17:10;;;;;;;13.88;8.55;;;;;;;;;;4973693;28;20050;-81
2023/01/26 05:19:47;;;;;;;21.90;19.63;;;;;;;;;;4948340;28;20043;-79
2023/01/26 05:22:33;;;;;;;14.35;8.93;;;;;;;;;;4971144;28;20099;-78
2023/01/26 05:25:20;;;;;;;14.38;9.45;;;;;;;;;;4973331;28;20051;-79
2023/01/26 05:28:00;;;;;;;13.65;8.27;;;;;;;;;;4961915;28;20055;-79
2023/01/26 05:30:30;;;;;;;14.32;9.05;;;;;;;;;;4938950;28;20054;-80
2023/01/26 05:33:03;;;;;;;13.98;8.40;;;;;;;;;;4957467;28;20070;-78
2023/01/26 05:35:31;;;;;;;13.07;8.27;;;;;;;;;;4948452;28;20406;-80
2023/01/26 05:37:59;;;;;;;15.95;8.85;;;;;;;;;;4956590;28;20146;-80
2023/01/26 05:40:29;;;;;;;15.02;8.07;;;;;;;;;;4956169;28;20534;-80
2023/01/26 05:42:57;;;;;;;12.43;8.00;;;;;;;;;;4957408;28;20170;-79
2023/01/26 05:45:41;;;;;;;13.55;8.85;;;;;;;;;;4978377;28;20047;-80
2023/01/26 05:48:11;;;;;;;11.52;7.40;;;;;;;;;;4956638;28;20038;-80
2023/01/26 05:50:41;;;;;;;12.70;8.10;;;;;;;;;;4971833;28;20130;-78
2023/01/26 05:53:26;;;;;;;15.38;8.45;;;;;;;;;;4946866;28;20536;-80
2023/01/26 05:55:54;;;;;;;14.50;7.82;;;;;;;;;;4946869;28;20053;-79
2023/01/26 05:58:23;;;;;;;13.15;7.82;;;;;;;;;;4954817;28;20046;-80
2023/01/26 06:00:51;;;;;;;15.15;8.82;;;;;;;;;;4961340;28;20050;-81
2023/01/26 06:03:24;;;;;;;14.15;8.43;;;;;;;;;;4948014;28;20074;-80
2023/01/26 06:05:52;;;;;;;12.48;8.60;;;;;;;;;;4968326;28;20074;-80
2023/01/26 06:08:38;;;;;;;12.88;7.50;;;;;;;;;;4969722;28;20039;-79
2023/01/26 06:11:26;;;;;;;15.98;9.20;;;;;;;;;;4951048;28;20053;-80
2023/01/26 06:14:05;;;;;;;14.45;8.43;;;;;;;;;;4961565;28;20050;-81
2023/01/26 06:16:32;;;;;;;11.23;7.53;;;;;;;;;;4954778;28;20071;-80
2023/01/26 06:19:00;;;;;;;40.80;36.42;;;;;;;;;;4949811;28;20085;-79
2023/01/26 06:21:27;;;;;;;13.75;8.52;;;;;;;;;;4970803;28;20043;-79
2023/01/26 06:23:55;;;;;;;14.80;8.80;;;;;;;;;;4950995;28;20130;-81
2023/01/26 06:26:26;;;;;;;15.38;9.48;;;;;;;;;;4958931;28;20169;-80
2023/01/26 06:28:58;;;;;;;13.57;8.27;;;;;;;;;;4965061;28;20046;-79
2023/01/26 06:31:28;;;;;;;16.73;9.90;;;;;;;;;;4956807;28;20054;-81
2023/01/26 06:33:58;;;;;;;13.00;9.05;;;;;;;;;;4959689;28;20043;-79
2023/01/26 06:36:27;;;;;;;13.05;8.90;;;;;;;;;;4947195;28;20050;-79
2023/01/26 06:38:54;;;;;;;14.13;9.25;;;;;;;;;;4952581;28;20137;-81
2023/01/26 06:41:24;;;;;;;13.98;9.40;;;;;;;;;;4955331;28;20078;-79
2023/01/26 06:43:51;;;;;;;17.52;9.48;;;;;;;;;;4945831;28;20073;-78
2023/01/26 06:46:19;;;;;;;15.35;9.45;;;;;;;;;;4945742;28;20054;-80
2023/01/26 06:48:49;;;;;;;12.80;8.70;;;;;;;;;;4943613;28;20884;-80
2023/01/26 06:51:20;;;;;;;17.50;11.20;;;;;;;;;;4969696;28;20062;-79
2023/01/26 06:53:51;;;;;;;56.83;25.70;;;;;;;;;;4942757;28;20046;-81
2023/01/26 06:56:32;;;;;;;21.50;10.32;;;;;;;;;;4944324;28;21290;-79
2023/01/26 06:59:17;;;;;;;19.73;10.00;;;;;;;;;;4949466;28;20058;-81
2023/01/26 07:02:03;;;;;;;15.38;9.30;;;;;;;;;;4956911;28;20054;-81
2023/01/26 07:04:30;;;;;;;28.90;14.25;;;;;;;;;;4957378;28;20585;-79
2023/01/26 07:06:57;;;;;;;19.85;9.98;;;;;;;;;;4950247;28;20505;-81
2023/01/26 07:09:25;;;;;;;16.27;10.15;;;;;;;;;;4954907;28;20078;-81
2023/01/26 07:11:52;;;;;;;23.27;12.20;;;;;;;;;;4957076;28;20718;-79
2023/01/26 07:14:19;;;;;;;17.55;10.27;;;;;;;;;;4948800;28;20055;-80
2023/01/26 07:16:47;;;;;;;18.65;10.50;;;;;;;;;;4958700;28;20560;-80
2023/01/26 07:19:14;;;;;;;21.58;12.32;;;;;;;;;;4978126;23;20058;-79
2023/01/26 07:21:41;;;;;;;14.60;9.40;;;;;;;;;;4973675;28;20337;-80
2023/01/26 07:24:09;;;;;;;13.85;9.60;;;;;;;;;;4980759;28;20046;-80
2023/01/26 07:26:36;;;;;;;13.90;9.45;;;;;;;;;;4964209;28;20425;-80
2023/01/26 07:29:04;;;;;;;14.48;10.20;;;;;;;;;;4979262;28;20038;-80
2023/01/26 07:31:34;;;;;;;16.15;8.90;;;;;;;;;;4984573;28;20073;-80
2023/01/26 07:34:02;;;;;;;17.05;10.60;;;;;;;;;;4980333;28;20046;-80
2023/01/26 07:36:29;;;;;;;13.98;8.75;;;;;;;;;;4983830;28;20461;-80
2023/01/26 07:38:56;;;;;;;16.02;13.48;;;;;;;;;;4981605;28;20125;-80
2023/01/26 07:41:24;;;;;;;16.50;9.88;;;;;;;;;;4964573;28;20046;-80
2023/01/26 07:43:51;;;;;;;18.02;10.50;;;;;;;;;;4981968;28;20034;-80
2023/01/26 07:46:19;;;;;;;16.00;9.88;;;;;;;;;;4965058;28;20054;-81
2023/01/26 07:48:49;;;;;;;18.48;10.35;;;;;;;;;;4980084;28;20050;-81
2023/01/26 07:51:16;;;;;;;16.25;9.55;;;;;;;;;;4986860;28;20046;-80
2023/01/26 07:53:44;;;;;;;14.45;9.65;;;;;;;;;;4989955;28;20075;-80
2023/01/26 07:56:15;;;;;;;17.77;9.93;;;;;;;;;;4970552;28;20560;-79
2023/01/26 07:58:43;;;;;;;15.95;9.95;;;;;;;;;;4988425;28;20121;-79
2023/01/26 08:01:12;;;;;;;15.82;9.60;;;;;;;;;;4988892;28;20085;-79
2023/01/26 08:03:40;;;;;;;17.80;9.63;;;;;;;;;;4990872;28;20043;-79
2023/01/26 08:06:07;;;;;;;17.88;9.50;;;;;;;;;;4990692;28;20097;-79
2023/01/26 08:08:40;;;;;;;16.75;10.20;;;;;;;;;;4985359;28;20124;-79
2023/01/26 08:11:07;;;;;;;18.40;11.00;;;;;;;;;;4990926;28;20050;-79
2023/01/26 08:13:34;;;;;;;26.85;15.43;;;;;;;;;;4990453;28;20046;-79
2023/01/26 08:16:04;;;;;;;19.77;12.63;;;;;;;;;;4990703;28;20117;-79
2023/01/26 08:18:32;;;;;;;30.08;17.50;;;;;;;;;;4990483;28;20046;-80
2023/01/26 08:20:59;;;;;;;57.50;20.85;;;;;;;;;;4991056;28;20042;-80
2023/01/26 08:23:27;;;;;;;21.70;11.18;;;;;;;;;;4988986;28;20045;-80
2023/01/26 08:25:54;;;;;;;21.75;10.75;;;;;;;;;;4988140;28;20045;-80
2023/01/26 08:28:22;;;;;;;17.48;9.93;;;;;;;;;;4991467;28;20408;-79
2023/01/26 08:30:49;;;;;;;16.10;10.23;;;;;;;;;;4991590;28;20052;-80
2023/01/26 08:33:17;;;;;;;16.40;9.23;;;;;;;;;;4992555;28;20133;-80
2023/01/26 08:35:44;;;;;;;16.27;9.85;;;;;;;;;;4985064;28;20050;-80
2023/01/26 08:38:12;;;;;;;12.57;8.25;;;;;;;;;;4970971;28;20120;-82
2023/01/26 08:40:42;;;;;;;16.38;9.82;;;;;;;;;;4989535;28;20081;-80
2023/01/26 08:43:09;;;;;;;28.00;18.27;;;;;;;;;;4985861;28;20069;-82
2023/01/26 08:45:39;;;;;;;20.10;12.15;;;;;;;;;;4989388;28;20042;-80
2023/01/26 08:48:06;;;;;;;19.27;10.95;;;;;;;;;;4989176;28;20128;-80
2023/01/26 08:50:34;;;;;;;17.52;10.50;;;;;;;;;;4989627;28;20046;-80
2023/01/26 08:53:02;;;;;;;21.58;10.15;;;;;;;;;;4989190;28;20594;-80
2023/01/26 08:55:31;;;;;;;18.33;10.77;;;;;;;;;;5003474;28;20111;-81
2023/01/26 08:57:59;;;;;;;17.92;9.70;;;;;;;;;;4991521;28;20046;-81
2023/01/26 09:00:31;;;;;;;16.88;10.25;;;;;;;;;;4989257;28;20073;-82
2023/01/26 09:03:02;;;;;;;18.40;10.55;;;;;;;;;;4988383;28;20074;-81
2023/01/26 09:05:33;;;;;;;19.15;11.70;;;;;;;;;;4986187;28;20038;-81
2023/01/26 09:08:04;;;;;;;20.83;14.65;;;;;;;;;;4989480;28;20046;-81
2023/01/26 09:10:32;;;;;;;19.33;11.50;;;;;;;;;;5009319;28;20587;-81
2023/01/26 09:15:39;;;;;;;17.42;10.63;;;;;;;;;;4956871;28;20046;-81
2023/01/26 09:18:06;;;;;;;15.98;9.73;;;;;;;;;;4957908;28;20047;-83
2023/01/26 09:20:34;;;;;;;16.50;10.00;;;;;;;;;;4957074;28;20121;-81
2023/01/26 09:23:02;;;;;;;14.90;9.10;;;;;;;;;;4980961;28;20093;-81
2023/01/26 09:25:30;;;;;;;14.55;9.23;;;;;;;;;;4987058;28;20073;-82
2023/01/26 09:27:58;;;;;;;12.40;8.00;;;;;;;;;;4994739;28;20097;-82
2023/01/26 09:30:25;;;;;;;12.02;7.30;;;;;;;;;;4977323;28;20518;-82
2023/01/26 09:32:57;;;;;;;15.85;12.00;;;;;;;;;;4991936;28;20417;-82
2023/01/26 09:35:28;;;;;;;18.83;14.77;;;;;;;;;;4993096;28;20050;-82
2023/01/26 09:37:56;;;;;;;11.52;6.85;;;;;;;;;;4992090;28;20054;-82
2023/01/26 09:40:30;;;;;;;10.40;6.97;;;;;;;;;;4993637;28;20812;-82
2023/01/26 09:43:07;;;;;;;11.43;7.55;;;;;;;;;;4975478;28;20050;-82
2023/01/26 09:45:40;;;;;;;10.07;6.57;;;;;;;;;;4992237;28;20052;-82
2023/01/26 09:48:11;;;;;;;28.75;22.10;;;;;;;;;;4991104;28;20046;-82
2023/01/26 09:50:52;;;;;;;9.98;7.38;;;;;;;;;;4974013;28;20061;-82
2023/01/26 09:53:40;;;;;;;12.40;7.38;;;;;;;;;;4991599;28;20046;-82
2023/01/26 09:56:11;;;;;;;12.93;8.20;;;;;;;;;;4990115;28;20408;-82
2023/01/26 09:58:39;;;;;;;18.48;7.82;;;;;;;;;;4991697;28;20077;-82
2023/01/26 10:01:13;;;;;;;20.48;14.20;;;;;;;;;;4991723;28;20053;-82
2023/01/26 10:03:43;;;;;;;14.30;8.80;;;;;;;;;;4992542;28;20082;-82
2023/01/26 10:06:14;;;;;;;13.05;8.60;;;;;;;;;;4992517;28;20104;-82
2023/01/26 10:09:19;;;;;;;14.05;8.63;;;;;;;;;;4991992;28;20050;-82
2023/01/26 10:11:48;;;;;;;15.13;9.35;;;;;;;;;;4998459;28;20046;-82
2023/01/26 10:14:20;;;;;;;17.27;13.63;;;;;;;;;;4997169;28;20077;-82
2023/01/26 10:16:48;;;;;;;15.77;8.68;;;;;;;;;;4997333;28;20110;-82
2023/01/26 10:19:29;;;;;;;13.30;8.88;;;;;;;;;;4979381;28;20141;-81
2023/01/26 10:22:00;;;;;;;18.45;9.98;;;;;;;;;;4998828;28;20132;-81
2023/01/26 10:24:27;;;;;;;36.75;23.48;;;;;;;;;;4993014;28;20054;-81
2023/01/26 10:26:56;;;;;;;15.98;14.02;;;;;;;;;;4995384;28;20142;-81
2023/01/26 10:29:24;;;;;;;16.48;8.93;;;;;;;;;;4994777;28;20046;-81
2023/01/26 10:31:51;;;;;;;13.00;8.88;;;;;;;;;;4994617;28;20510;-81
2023/01/26 10:34:27;;;;;;;16.40;9.60;;;;;;;;;;4994876;28;20428;-81
2023/01/26 10:37:01;;;;;;;15.80;8.90;;;;;;;;;;4995123;28;20050;-81
2023/01/26 10:39:28;;;;;;;14.05;9.15;;;;;;;;;;4975943;28;20077;-81
2023/01/26 10:41:56;;;;;;;15.80;9.18;;;;;;;;;;4974537;28;20034;-81
2023/01/26 10:44:28;;;;;;;18.90;9.57;;;;;;;;;;4978208;28;20066;-81
2023/01/26 10:47:15;;;;;;;12.65;7.78;;;;;;;;;;4995910;28;20429;-82
2023/01/26 10:49:43;;;;;;;13.70;8.43;;;;;;;;;;4973288;28;20046;-81
2023/01/26 10:52:18;;;;;;;13.48;8.27;;;;;;;;;;5003189;28;20121;-81
2023/01/26 10:54:46;;;;;;;49.63;44.38;;;;;;;;;;4996401;28;20058;-81
2023/01/26 10:57:16;;;;;;;12.48;7.28;;;;;;;;;;4999627;28;20121;-82
2023/01/26 10:59:48;;;;;;;16.50;7.80;;;;;;;;;;5007317;28;20057;-81
2023/01/26 11:02:16;;;;;;;15.73;8.43;;;;;;;;;;5004294;28;20042;-81
2023/01/26 11:05:01;;;;;;;13.30;7.53;;;;;;;;;;4983165;28;20050;-81
2023/01/26 11:07:32;;;;;;;14.65;8.10;;;;;;;;;;4975629;28;20530;-81
2023/01/26 11:10:16;;;;;;;15.35;7.93;;;;;;;;;;4991296;28;20077;-81
2023/01/26 11:12:43;;;;;;;17.30;9.35;;;;;;;;;;4990021;28;20047;-81
2023/01/26 11:15:22;;;;;;;14.45;8.48;;;;;;;;;;4984204;28;20487;-81
2023/01/26 11:17:58;;;;;;;11.75;8.00;;;;;;;;;;4988444;28;20053;-81
2023/01/26 11:20:45;;;;;;;11.88;8.40;;;;;;;;;;4991666;28;20050;-81
2023/01/26 11:23:22;;;;;;;16.55;13.68;;;;;;;;;;4972473;28;20104;-81
2023/01/26 11:25:49;;;;;;;14.40;7.60;;;;;;;;;;4991691;28;20057;-81
2023/01/26 11:28:19;;;;;;;12.45;7.50;;;;;;;;;;4986157;28;20061;-81
2023/01/26 11:31:08;;;;;;;16.42;12.02;;;;;;;;;;4990120;28;20054;-81
2023/01/26 11:33:42;;;;;;;13.35;8.13;;;;;;;;;;4991655;28;20145;-81
2023/01/26 11:36:29;;;;;;;13.85;8.45;;;;;;;;;;4976081;28;20054;-81
2023/01/26 11:39:09;;;;;;;20.92;9.27;;;;;;;;;;4994413;28;20417;-81
2023/01/26 11:41:45;;;;;;;17.65;8.50;;;;;;;;;;4976864;28;20050;-81
2023/01/26 11:44:21;;;;;;;16.90;8.77;;;;;;;;;;4993977;28;20050;-81
2023/01/26 11:46:51;;;;;;;13.45;8.98;;;;;;;;;;4994024;28;20116;-81
2023/01/26 11:49:19;;;;;;;13.63;8.00;;;;;;;;;;4991335;28;20074;-81
2023/01/26 11:52:00;;;;;;;14.65;8.50;;;;;;;;;;4978489;28;20065;-82
2023/01/26 11:54:40;;;;;;;14.63;8.43;;;;;;;;;;4989542;28;20137;-81
2023/01/26 11:57:16;;;;;;;17.55;9.77;;;;;;;;;;4977745;28;20053;-81
2023/01/26 11:59:47;;;;;;;17.30;10.68;;;;;;;;;;4993752;28;20757;-81
2023/01/26 12:02:25;;;;;;;13.90;8.32;;;;;;;;;;4993061;28;20468;-81
2023/01/26 12:04:55;;;;;;;15.82;10.70;;;;;;;;;;4994529;28;20504;-81
2023/01/26 12:07:50;;;;;;;15.32;9.85;;;;;;;;;;4976783;28;20046;-81
2023/01/26 12:10:19;;;;;;;13.45;8.20;;;;;;;;;;4993933;28;20073;-81
2023/01/26 12:12:49;;;;;;;11.80;7.88;;;;;;;;;;4991828;28;20053;-81
2023/01/26 12:15:19;;;;;;;17.23;11.32;;;;;;;;;;4992985;28;20061;-80
2023/01/26 12:17:59;;;;;;;20.13;17.73;;;;;;;;;;4988100;28;20415;-81
2023/01/26 12:20:27;;;;;;;18.45;14.63;;;;;;;;;;4990851;28;20108;-81
2023/01/26 12:23:03;;;;;;;13.35;8.10;;;;;;;;;;4992288;28;20052;-81
2023/01/26 12:25:41;;;;;;;15.85;8.63;;;;;;;;;;4990701;28;20058;-81
2023/01/26 12:28:18;;;;;;;10.77;7.05;;;;;;;;;;4972014;28;20054;-81
2023/01/26 12:31:07;;;;;;;16.13;7.85;;;;;;;;;;4994113;28;20046;-81
2023/01/26 12:33:35;;;;;;;16.52;9.07;;;;;;;;;;4993370;28;20625;-81
2023/01/26 12:36:32;;;;;;;12.10;7.47;;;;;;;;;;4993356;28;20109;-81
2023/01/26 12:39:04;;;;;;;19.60;7.85;;;;;;;;;;4977060;28;20145;-81
2023/01/26 12:41:32;;;;;;;16.02;8.38;;;;;;;;;;4973534;28;20050;-81
2023/01/26 12:44:18;;;;;;;19.45;9.98;;;;;;;;;;4986039;28;20046;-82
2023/01/26 12:46:51;;;;;;;18.00;8.73;;;;;;;;;;5002892;28;20077;-82
2023/01/26 12:49:25;;;;;;;14.40;7.97;;;;;;;;;;4990404;28;20046;-81
2023/01/26 12:52:01;;;;;;;13.18;8.23;;;;;;;;;;4995231;28;20554;-81
2023/01/26 12:54:36;;;;;;;12.35;7.50;;;;;;;;;;4978022;28;20082;-79
2023/01/26 12:57:06;;;;;;;16.02;11.48;;;;;;;;;;4993769;28;20054;-81
2023/01/26 12:59:35;;;;;;;18.38;8.98;;;;;;;;;;4991133;28;20129;-82
2023/01/26 13:02:14;;;;;;;15.18;7.63;;;;;;;;;;4980803;28;20074;-82
2023/01/26 13:04:45;;;;;;;13.75;11.73;;;;;;;;;;4991067;28;20472;-81
2023/01/26 13:07:27;;;;;;;23.15;20.70;;;;;;;;;;4974768;28;20392;-81
2023/01/26 13:10:10;;;;;;;15.60;8.85;;;;;;;;;;4990819;28;20133;-82
2023/01/26 13:12:46;;;;;;;19.70;12.07;;;;;;;;;;4976809;28;20047;-81
2023/01/26 13:15:15;;;;;;;17.55;9.82;;;;;;;;;;4993599;28;20070;-79
2023/01/26 13:17:50;;;;;;;21.27;8.88;;;;;;;;;;4991017;28;20052;-82
2023/01/26 13:20:36;;;;;;;13.68;7.93;;;;;;;;;;4972757;23;20062;-77
2023/01/26 13:23:23;;;;;;;17.38;12.68;;;;;;;;;;4955556;28;20051;-77
2023/01/26 13:26:10;;;;;;;15.52;10.90;;;;;;;;;;4966365;28;20131;-80
2023/01/26 13:28:38;;;;;;;17.65;8.43;;;;;;;;;;4964798;28;20094;-77
2023/01/26 13:31:06;;;;;;;16.15;9.70;;;;;;;;;;4951118;28;20043;-81
2023/01/26 13:33:34;;;;;;;13.02;7.70;;;;;;;;;;4968319;28;20402;-79
2023/01/26 13:36:10;;;;;;;14.32;9.55;;;;;;;;;;4968830;28;20094;-80
2023/01/26 13:38:39;;;;;;;13.65;10.48;;;;;;;;;;4968560;28;20424;-80
2023/01/26 13:41:09;;;;;;;14.40;7.10;;;;;;;;;;4969509;28;20109;-77
2023/01/26 13:43:39;;;;;;;18.85;10.00;;;;;;;;;;4968190;28;20050;-78
2023/01/26 13:46:19;;;;;;;13.30;8.63;;;;;;;;;;4972749;28;20125;-78
2023/01/26 13:48:46;;;;;;;13.52;8.80;;;;;;;;;;4973082;28;20348;-78
2023/01/26 13:51:18;;;;;;;12.65;7.90;;;;;;;;;;4972771;28;20072;-78
2023/01/26 13:53:58;;;;;;;17.40;8.20;;;;;;;;;;4954879;28;20512;-78
2023/01/26 13:56:48;;;;;;;14.15;9.93;;;;;;;;;;4972899;28;20053;-77
2023/01/26 13:59:21;;;;;;;15.05;7.30;;;;;;;;;;4971801;28;20051;-77
2023/01/26 14:01:50;;;;;;;21.40;9.20;;;;;;;;;;4972568;28;20050;-78
2023/01/26 14:04:19;;;;;;;23.67;21.13;;;;;;;;;;4972094;28;20398;-81
2023/01/26 14:07:17;;;;;;;15.77;8.73;;;;;;;;;;4972679;28;20051;-81
2023/01/26 14:09:47;;;;;;;18.70;8.90;;;;;;;;;;4971559;28;20504;-80
2023/01/26 14:12:22;;;;;;;16.45;8.55;;;;;;;;;;4972330;28;20054;-80
2023/01/26 14:15:00;;;;;;;14.90;8.45;;;;;;;;;;4972705;28;20069;-80
2023/01/26 14:17:28;;;;;;;14.27;8.40;;;;;;;;;;4972878;28;20054;-79
2023/01/26 14:19:57;;;;;;;16.17;7.97;;;;;;;;;;4972164;28;20051;-78
2023/01/26 14:22:24;;;;;;;12.57;8.00;;;;;;;;;;4971989;28;20071;-78
2023/01/26 14:24:52;;;;;;;17.80;7.18;;;;;;;;;;4972468;28;20062;-81
2023/01/26 14:27:23;;;;;;;13.38;7.85;;;;;;;;;;4973333;28;20362;-78
2023/01/26 14:29:50;;;;;;;12.80;7.57;;;;;;;;;;4973325;28;20058;-78
2023/01/26 14:32:17;;;;;;;13.20;7.00;;;;;;;;;;4972139;28;20464;-78
2023/01/26 14:34:52;;;;;;;12.40;7.57;;;;;;;;;;4971936;28;20527;-78
2023/01/26 14:37:20;;;;;;;15.32;8.38;;;;;;;;;;4954253;28;20072;-78
2023/01/26 14:39:47;;;;;;;11.70;7.40;;;;;;;;;;4954370;28;20057;-78
2023/01/26 14:42:16;;;;;;;11.90;7.20;;;;;;;;;;4971680;28;20068;-82
2023/01/26 14:44:43;;;;;;;21.42;7.28;;;;;;;;;;4971628;28;20055;-78
2023/01/26 14:47:26;;;;;;;20.75;7.95;;;;;;;;;;4954591;28;20150;-82
2023/01/26 14:50:02;;;;;;;12.52;8.13;;;;;;;;;;4971687;28;20059;-79
2023/01/26 14:52:32;;;;;;;11.27;8.60;;;;;;;;;;4971181;28;20058;-80
2023/01/26 14:55:12;;;;;;;12.88;8.68;;;;;;;;;;4953951;28;20137;-77
2023/01/26 14:57:39;;;;;;;13.52;8.45;;;;;;;;;;4970367;28;20056;-80
2023/01/26 15:00:08;;;;;;;14.88;8.43;;;;;;;;;;4970960;28;20118;-80
2023/01/26 15:02:38;;;;;;;17.92;9.48;;;;;;;;;;4970797;28;20462;-77
2023/01/26 15:05:12;;;;;;;14.02;8.07;;;;;;;;;;4971050;28;20393;-77
2023/01/26 15:07:42;;;;;;;15.73;8.82;;;;;;;;;;4971164;28;20114;-80
2023/01/26 15:10:25;;;;;;;16.67;8.82;;;;;;;;;;4971212;28;20292;-80
2023/01/26 15:12:59;;;;;;;18.95;12.77;;;;;;;;;;4970858;28;20055;-78
2023/01/26 15:15:27;;;;;;;16.05;8.98;;;;;;;;;;4971278;28;20129;-82
2023/01/26 15:18:05;;;;;;;17.35;9.40;;;;;;;;;;4970984;28;20393;-82
2023/01/26 15:20:33;;;;;;;15.82;9.45;;;;;;;;;;4971360;28;20046;-81
2023/01/26 15:23:00;;;;;;;19.35;11.15;;;;;;;;;;4953813;28;20057;-80
2023/01/26 15:25:28;;;;;;;23.10;11.25;;;;;;;;;;4971436;28;20047;-78
2023/01/26 15:27:57;;;;;;;17.50;10.10;;;;;;;;;;4954237;28;20057;-78
2023/01/26 15:30:25;;;;;;;18.77;9.32;;;;;;;;;;4971411;28;20055;-82
2023/01/26 15:32:53;;;;;;;21.23;11.20;;;;;;;;;;4971361;28;20476;-77
2023/01/26 15:35:22;;;;;;;21.98;10.48;;;;;;;;;;4971384;28;20112;-77
2023/01/26 15:37:50;;;;;;;19.80;10.35;;;;;;;;;;4971497;28;20513;-81
2023/01/26 15:40:17;;;;;;;16.60;12.00;;;;;;;;;;4954715;28;20402;-77
2023/01/26 15:42:44;;;;;;;19.02;10.40;;;;;;;;;;4970832;28;20050;-77
2023/01/26 15:45:23;;;;;;;17.77;10.07;;;;;;;;;;4971703;28;20050;-81
2023/01/26 15:47:50;;;;;;;18.60;10.32;;;;;;;;;;4971364;28;20065;-78
2023/01/26 15:50:18;;;;;;;16.40;10.27;;;;;;;;;;4971545;28;20051;-78